createdAt,value
2023-01-04T00:00:45.630Z,57.94
2023-01-04T00:01:56.623Z,57.61
2023-01-04T00:03:06.883Z,57.64
2023-01-04T00:05:31.027Z,57.95
2023-01-04T00:06:40.387Z,57.67
2023-01-04T00:07:49.402Z,57.85
2023-01-04T00:08:58.419Z,58.29
2023-01-04T00:10:07.993Z,58.21
2023-01-04T00:12:36.633Z,58.17
2023-01-04T00:13:48.781Z,58.04
2023-01-04T00:14:57.845Z,57.65
2023-01-04T00:16:11.322Z,57.74
2023-01-04T00:17:20.962Z,57.50
2023-01-04T00:18:31.113Z,57.63
2023-01-04T00:19:40.124Z,58.16
2023-01-04T00:22:04.540Z,57.88
2023-01-04T00:23:13.655Z,57.97
2023-01-04T00:24:23.291Z,57.72
2023-01-04T00:25:32.819Z,57.80
2023-01-04T00:26:43.009Z,57.42
2023-01-04T00:29:10.637Z,57.77
2023-01-04T00:30:22.205Z,58.04
2023-01-04T00:31:30.942Z,57.87
2023-01-04T00:32:39.661Z,57.71
2023-01-04T00:33:49.034Z,57.68
2023-01-04T00:34:58.395Z,57.73
2023-01-04T00:37:32.064Z,57.97
2023-01-04T00:38:41.832Z,57.82
2023-01-04T00:39:51.443Z,58.14
2023-01-04T00:41:01.997Z,57.91
2023-01-04T00:42:10.991Z,57.87
2023-01-04T00:43:19.624Z,57.88
2023-01-04T00:44:30.346Z,57.67
2023-01-04T00:45:39.916Z,57.76
2023-01-04T00:46:49.272Z,57.47
2023-01-04T00:47:57.748Z,57.55
2023-01-04T00:50:24.290Z,57.51
2023-01-04T00:51:35.748Z,57.71
2023-01-04T00:52:44.750Z,57.71
2023-01-04T00:53:53.255Z,57.77
2023-01-04T00:56:18.264Z,57.97
2023-01-04T00:57:28.782Z,57.68
2023-01-04T00:58:37.498Z,57.75
2023-01-04T00:59:46.417Z,57.92
2023-01-04T01:00:55.257Z,57.52
2023-01-04T01:02:04.111Z,57.55
2023-01-04T01:03:13.145Z,57.63
2023-01-04T01:04:24.557Z,57.64
2023-01-04T01:05:35.352Z,57.71
2023-01-04T01:06:45.670Z,57.77
2023-01-04T01:07:55.407Z,57.86
2023-01-04T01:09:05.424Z,57.69
2023-01-04T01:11:35.926Z,57.35
2023-01-04T01:12:44.774Z,57.55
2023-01-04T01:13:54.404Z,57.33
2023-01-04T01:15:04.484Z,57.60
2023-01-04T01:16:37.916Z,57.50
2023-01-04T01:17:30.508Z,57.15
2023-01-04T01:18:41.826Z,57.31
2023-01-04T01:19:50.396Z,57.50
2023-01-04T01:21:00.530Z,57.22
2023-01-04T01:22:10.582Z,57.55
2023-01-04T01:23:19.126Z,57.42
2023-01-04T01:24:31.287Z,57.61
2023-01-04T01:25:41.510Z,57.69
2023-01-04T01:28:05.149Z,57.54
2023-01-04T01:29:14.085Z,57.39
2023-01-04T01:30:23.502Z,57.49
2023-01-04T01:31:32.232Z,57.38
2023-01-04T01:32:41.357Z,57.47
2023-01-04T01:33:52.729Z,57.74
2023-01-04T01:35:03.156Z,57.72
2023-01-04T01:36:13.146Z,57.57
2023-01-04T01:37:21.747Z,57.58
2023-01-04T01:38:30.789Z,57.35
2023-01-04T01:39:40.375Z,57.27
2023-01-04T01:42:04.370Z,57.23
2023-01-04T01:43:17.548Z,57.74
2023-01-04T01:44:45.283Z,57.74
2023-01-04T01:45:56.969Z,57.74
2023-01-04T01:47:06.274Z,57.62
2023-01-04T01:48:19.633Z,57.44
2023-01-04T01:52:20.369Z,57.47
2023-01-04T01:53:32.419Z,57.67
2023-01-04T01:54:44.949Z,57.90
2023-01-04T01:55:55.174Z,57.82
2023-01-04T01:57:07.312Z,58.14
2023-01-04T01:58:20.099Z,58.13
2023-01-04T01:59:30.598Z,57.90
2023-01-04T02:00:39.505Z,57.69
2023-01-04T02:01:49.427Z,57.84
2023-01-04T02:03:11.486Z,57.82
2023-01-04T02:04:20.728Z,57.84
2023-01-04T02:05:32.207Z,57.66
2023-01-04T02:06:51.048Z,57.24
2023-01-04T02:08:03.694Z,57.16
2023-01-04T02:09:13.646Z,57.16
2023-01-04T02:10:26.475Z,57.32
2023-01-04T02:11:39.881Z,57.45
2023-01-04T02:14:28.157Z,57.15
2023-01-04T02:17:08.946Z,57.36
2023-01-04T02:18:21.222Z,57.38
2023-01-04T02:19:36.361Z,57.63
2023-01-04T02:22:29.834Z,57.96
2023-01-04T02:23:44.975Z,57.73
2023-01-04T02:25:13.939Z,57.91
2023-01-04T02:26:48.321Z,57.75
2023-01-04T02:29:30.079Z,57.64
2023-01-04T02:31:05.825Z,57.49
2023-01-04T02:32:46.516Z,57.68
2023-01-04T02:34:04.744Z,57.47
2023-01-04T02:35:22.995Z,57.73
2023-01-04T02:36:43.344Z,57.77
2023-01-04T02:38:07.106Z,57.62
2023-01-04T02:40:51.306Z,57.82
2023-01-04T02:42:22.093Z,57.94
2023-01-04T02:44:08.026Z,57.63
2023-01-04T02:45:21.412Z,57.70
2023-01-04T02:46:34.228Z,57.91
2023-01-04T02:48:02.151Z,57.73
2023-01-04T02:49:29.085Z,57.58
2023-01-04T02:51:00.793Z,57.38
2023-01-04T02:52:09.701Z,57.31
2023-01-04T02:54:39.044Z,57.28
2023-01-04T02:55:54.340Z,56.98
2023-01-04T02:57:24.268Z,57.30
2023-01-04T02:58:40.325Z,57.08
2023-01-04T03:00:17.005Z,57.27
2023-01-04T03:03:30.125Z,57.13
2023-01-04T03:05:18.801Z,56.91
2023-01-04T03:06:41.228Z,57.11
2023-01-04T03:08:02.868Z,56.86
2023-01-04T03:09:15.591Z,56.87
2023-01-04T03:12:25.909Z,57.30
2023-01-04T03:13:45.714Z,57.29
2023-01-04T03:16:35.910Z,57.26
2023-01-04T03:17:54.581Z,57.56
2023-01-04T03:19:09.340Z,57.38
2023-01-04T03:21:40.968Z,57.34
2023-01-04T03:23:17.210Z,57.30
2023-01-04T03:24:45.172Z,57.38
2023-01-04T03:27:49.660Z,57.54
2023-01-04T03:29:21.829Z,57.43
2023-01-04T03:30:51.655Z,57.30
2023-01-04T03:32:33.269Z,57.46
2023-01-04T03:34:02.497Z,57.29
2023-01-04T03:35:24.690Z,57.41
2023-01-04T03:38:32.276Z,57.55
2023-01-04T03:41:51.828Z,57.63
2023-01-04T03:43:34.464Z,57.70
2023-01-04T03:45:10.468Z,57.80
2023-01-04T03:46:54.102Z,57.70
2023-01-04T03:48:31.808Z,57.62
2023-01-04T03:49:49.050Z,57.54
2023-01-04T03:51:10.007Z,57.50
2023-01-04T03:52:22.346Z,57.60
2023-01-04T03:54:51.945Z,57.87
2023-01-04T03:56:02.378Z,58.08
2023-01-04T03:57:13.108Z,58.24
2023-01-04T03:58:22.413Z,58.14
2023-01-04T03:59:34.368Z,57.99
2023-01-04T04:00:46.839Z,58.09
2023-01-04T04:01:56.638Z,58.19
2023-01-04T04:03:07.788Z,58.30
2023-01-04T04:04:36.463Z,58.67
2023-01-04T04:06:04.484Z,58.55
2023-01-04T04:07:32.141Z,58.43
2023-01-04T04:08:40.712Z,58.41
2023-01-04T04:09:49.763Z,58.31
2023-01-04T04:12:20.903Z,58.65
2023-01-04T04:13:29.747Z,58.62
2023-01-04T04:14:38.723Z,58.68
2023-01-04T04:15:48.912Z,59.07
2023-01-04T04:18:14.581Z,58.86
2023-01-04T04:19:24.324Z,58.70
2023-01-04T04:20:33.656Z,58.96
2023-01-04T04:21:43.313Z,58.85
2023-01-04T04:22:51.884Z,58.71
2023-01-04T04:24:02.757Z,58.64
2023-01-04T04:25:11.734Z,59.18
2023-01-04T04:26:21.310Z,59.22
2023-01-04T04:27:29.852Z,59.01
2023-01-04T04:28:40.201Z,58.94
2023-01-04T04:29:50.954Z,58.80
2023-01-04T04:31:00.529Z,58.86
2023-01-04T04:32:09.384Z,58.61
2023-01-04T04:34:33.457Z,58.69
2023-01-04T04:35:43.100Z,58.70
2023-01-04T04:36:51.915Z,58.59
2023-01-04T04:38:00.917Z,58.87
2023-01-04T04:39:11.909Z,59.12
2023-01-04T04:40:39.709Z,59.23
2023-01-04T04:43:03.566Z,59.17
2023-01-04T04:44:19.254Z,59.26
2023-01-04T04:45:28.211Z,58.99
2023-01-04T04:46:38.385Z,58.75
2023-01-04T04:49:02.233Z,58.77
2023-01-04T04:50:11.515Z,58.82
2023-01-04T04:51:20.635Z,58.76
2023-01-04T04:52:29.710Z,58.91
2023-01-04T04:53:39.421Z,59.02
2023-01-04T04:54:48.506Z,58.78
2023-01-04T04:55:57.826Z,58.96
2023-01-04T04:57:07.102Z,58.77
2023-01-04T04:58:16.091Z,58.73
2023-01-04T04:59:26.038Z,58.71
2023-01-04T05:00:35.231Z,58.99
2023-01-04T05:01:44.847Z,58.92
2023-01-04T05:02:56.452Z,58.82
2023-01-04T05:04:05.727Z,58.72
2023-01-04T05:05:14.885Z,58.47
2023-01-04T05:06:24.424Z,58.54
2023-01-04T05:07:33.472Z,58.62
2023-01-04T05:09:59.151Z,58.67
2023-01-04T05:11:11.719Z,58.72
2023-01-04T05:12:38.834Z,58.56
2023-01-04T05:13:48.016Z,58.18
2023-01-04T05:14:56.643Z,58.50
2023-01-04T05:16:10.020Z,58.17
2023-01-04T05:17:18.954Z,58.54
2023-01-04T05:18:28.404Z,58.45
2023-01-04T05:19:37.490Z,58.47
2023-01-04T05:20:50.005Z,58.52
2023-01-04T05:23:15.797Z,58.47
2023-01-04T05:24:24.873Z,58.36
2023-01-04T05:25:34.489Z,58.26
2023-01-04T05:26:43.108Z,58.40
2023-01-04T05:27:53.511Z,58.44
2023-01-04T05:29:02.127Z,58.44
2023-01-04T05:30:32.990Z,58.41
2023-01-04T05:31:43.066Z,58.34
2023-01-04T05:32:51.938Z,58.37
2023-01-04T05:35:16.946Z,58.25
2023-01-04T05:36:27.390Z,58.29
2023-01-04T05:37:36.017Z,58.56
2023-01-04T05:38:45.189Z,58.52
2023-01-04T05:39:57.897Z,58.27
2023-01-04T05:42:27.433Z,58.32
2023-01-04T05:43:36.869Z,58.25
2023-01-04T05:44:45.387Z,58.17
2023-01-04T05:45:56.389Z,58.09
2023-01-04T05:47:12.976Z,58.47
2023-01-04T05:48:18.229Z,58.42
2023-01-04T05:49:27.234Z,58.27
2023-01-04T05:50:36.298Z,58.33
2023-01-04T05:51:47.017Z,58.15
2023-01-04T05:52:55.757Z,58.27
2023-01-04T05:54:04.983Z,58.29
2023-01-04T05:55:14.588Z,58.01
2023-01-04T05:56:24.139Z,58.22
2023-01-04T05:57:33.266Z,58.28
2023-01-04T05:58:42.269Z,58.03
2023-01-04T05:59:50.891Z,58.08
2023-01-04T06:01:00.310Z,58.12
2023-01-04T06:03:33.174Z,58.32
2023-01-04T06:04:43.029Z,58.51
2023-01-04T06:05:52.105Z,58.37
2023-01-04T06:07:02.197Z,58.56
2023-01-04T06:08:11.711Z,58.54
2023-01-04T06:09:20.471Z,58.38
2023-01-04T06:10:30.188Z,58.23
2023-01-04T06:11:38.797Z,58.27
2023-01-04T06:12:49.455Z,58.40
2023-01-04T06:13:58.861Z,58.35
2023-01-04T06:15:11.902Z,58.34
2023-01-04T06:16:22.070Z,58.46
2023-01-04T06:17:32.848Z,58.11
2023-01-04T06:18:42.403Z,58.02
2023-01-04T06:19:51.015Z,57.77
2023-01-04T06:21:01.973Z,57.90
2023-01-04T06:22:12.129Z,57.85
2023-01-04T06:24:37.449Z,58.02
2023-01-04T06:25:46.504Z,57.83
2023-01-04T06:26:55.255Z,58.01
2023-01-04T06:28:03.868Z,57.64
2023-01-04T06:29:13.223Z,57.58
2023-01-04T06:30:22.823Z,57.68
2023-01-04T06:31:33.151Z,57.64
2023-01-04T06:32:42.982Z,57.70
2023-01-04T06:33:52.018Z,57.98
2023-01-04T06:35:00.745Z,57.65
2023-01-04T06:36:19.295Z,57.71
2023-01-04T06:37:21.567Z,57.91
2023-01-04T06:38:31.878Z,57.74
2023-01-04T06:39:40.510Z,57.81
2023-01-04T06:40:49.828Z,57.73
2023-01-04T06:42:05.760Z,57.65
2023-01-04T06:43:08.807Z,57.66
2023-01-04T06:44:17.545Z,57.94
2023-01-04T06:45:26.202Z,57.81
2023-01-04T06:46:35.677Z,57.68
2023-01-04T06:47:44.814Z,57.73
2023-01-04T06:48:53.750Z,57.94
2023-01-04T06:50:03.506Z,57.70
2023-01-04T06:51:12.849Z,58.03
2023-01-04T06:52:22.384Z,57.72
2023-01-04T06:53:31.136Z,57.88
2023-01-04T06:54:40.807Z,57.91
2023-01-04T06:55:49.636Z,58.00
2023-01-04T06:56:59.325Z,57.72
2023-01-04T06:58:07.873Z,57.71
2023-01-04T07:00:31.199Z,57.87
2023-01-04T07:01:39.921Z,57.82
2023-01-04T07:03:14.658Z,57.79
2023-01-04T07:03:59.931Z,57.49
2023-01-04T07:05:09.217Z,57.50
2023-01-04T07:06:19.330Z,57.21
2023-01-04T07:07:28.730Z,57.49
2023-01-04T07:08:38.336Z,57.71
2023-01-04T07:09:46.976Z,57.48
2023-01-04T07:10:56.221Z,57.55
2023-01-04T07:12:06.448Z,57.55
2023-01-04T07:13:18.464Z,57.59
2023-01-04T07:14:27.894Z,57.58
2023-01-04T07:15:40.714Z,57.60
2023-01-04T07:16:48.711Z,57.78
2023-01-04T07:17:57.299Z,57.74
2023-01-04T07:19:08.560Z,57.91
2023-01-04T07:20:19.569Z,57.73
2023-01-04T07:21:29.431Z,57.87
2023-01-04T07:22:40.944Z,57.92
2023-01-04T07:23:50.617Z,57.78
2023-01-04T07:25:00.217Z,57.84
2023-01-04T07:26:09.372Z,57.83
2023-01-04T07:27:18.489Z,58.02
2023-01-04T07:30:00.984Z,58.23
2023-01-04T07:31:10.947Z,57.87
2023-01-04T07:32:19.941Z,57.74
2023-01-04T07:33:28.447Z,57.88
2023-01-04T07:34:39.079Z,57.65
2023-01-04T07:35:47.634Z,57.93
2023-01-04T07:36:56.760Z,57.84
2023-01-04T07:38:05.240Z,57.92
2023-01-04T07:39:14.765Z,57.85
2023-01-04T07:40:24.276Z,57.93
2023-01-04T07:41:33.027Z,57.92
2023-01-04T07:42:41.746Z,57.84
2023-01-04T07:43:50.679Z,57.89
2023-01-04T07:45:00.017Z,57.89
2023-01-04T07:46:09.306Z,57.85
2023-01-04T07:47:18.177Z,57.63
2023-01-04T07:48:28.995Z,57.83
2023-01-04T07:49:37.631Z,57.72
2023-01-04T07:50:46.493Z,57.80
2023-01-04T07:51:55.037Z,57.56
2023-01-04T07:53:04.068Z,57.72
2023-01-04T07:54:13.483Z,58.09
2023-01-04T07:55:22.006Z,58.25
2023-01-04T07:56:30.951Z,58.15
2023-01-04T07:57:39.929Z,58.52
2023-01-04T07:58:49.706Z,58.21
2023-01-04T07:59:59.348Z,58.21
2023-01-04T08:02:28.397Z,58.24
2023-01-04T08:03:37.219Z,58.26
2023-01-04T08:04:45.905Z,58.03
2023-01-04T08:05:54.571Z,58.09
2023-01-04T08:07:04.033Z,58.03
2023-01-04T08:08:12.551Z,58.33
2023-01-04T08:09:21.661Z,58.28
2023-01-04T08:10:31.295Z,58.50
2023-01-04T08:11:40.800Z,58.39
2023-01-04T08:12:49.295Z,58.09
2023-01-04T08:13:57.939Z,58.41
2023-01-04T08:15:07.774Z,58.41
2023-01-04T08:17:45.985Z,58.39
2023-01-04T08:18:57.428Z,58.27
2023-01-04T08:20:06.942Z,58.15
2023-01-04T08:21:16.452Z,58.18
2023-01-04T08:22:25.541Z,58.13
2023-01-04T08:24:51.901Z,58.37
2023-01-04T08:26:06.512Z,58.26
2023-01-04T08:27:15.132Z,58.04
2023-01-04T08:28:23.661Z,57.93
2023-01-04T08:30:46.972Z,58.05
2023-01-04T08:31:55.563Z,58.04
2023-01-04T08:34:22.834Z,58.04
2023-01-04T08:35:31.383Z,57.71
2023-01-04T08:36:47.755Z,58.07
2023-01-04T08:38:13.119Z,58.22
2023-01-04T08:39:07.041Z,58.37
2023-01-04T08:40:17.416Z,58.27
2023-01-04T08:42:38.253Z,58.32
2023-01-04T08:43:46.928Z,58.52
2023-01-04T08:44:59.585Z,58.39
2023-01-04T08:46:07.270Z,58.15
2023-01-04T08:47:16.164Z,58.29
2023-01-04T08:48:25.301Z,58.05
2023-01-04T08:49:34.974Z,58.05
2023-01-04T08:50:44.259Z,58.32
2023-01-04T08:51:54.348Z,58.48
2023-01-04T08:53:03.515Z,58.60
2023-01-04T08:54:13.565Z,59.03
2023-01-04T08:55:23.721Z,59.62
2023-01-04T08:56:32.483Z,60.40
2023-01-04T08:57:42.463Z,60.89
2023-01-04T08:58:52.027Z,61.90
2023-01-04T09:00:01.312Z,62.30
2023-01-04T09:02:28.440Z,63.24
2023-01-04T09:03:38.241Z,63.78
2023-01-04T09:04:47.531Z,64.18
2023-01-04T09:06:10.067Z,64.28
2023-01-04T09:07:19.010Z,64.31
2023-01-04T09:08:27.551Z,64.67
2023-01-04T09:09:36.232Z,65.18
2023-01-04T09:10:46.553Z,65.30
2023-01-04T09:11:55.070Z,65.37
2023-01-04T09:13:04.171Z,65.66
2023-01-04T09:14:13.797Z,65.89
2023-01-04T09:15:22.907Z,65.89
2023-01-04T09:16:32.349Z,65.87
2023-01-04T09:17:58.003Z,65.89
2023-01-04T09:18:52.505Z,66.04
2023-01-04T09:20:01.016Z,66.39
2023-01-04T09:21:13.547Z,66.63
2023-01-04T09:22:23.186Z,66.83
2023-01-04T09:23:33.500Z,66.83
2023-01-04T09:24:41.998Z,66.85
2023-01-04T09:25:50.709Z,66.89
2023-01-04T09:26:59.720Z,66.72
2023-01-04T09:28:08.651Z,66.88
2023-01-04T09:29:17.376Z,66.49
2023-01-04T09:30:28.753Z,66.57
2023-01-04T09:31:38.391Z,66.67
2023-01-04T09:32:49.656Z,66.72
2023-01-04T09:34:16.440Z,66.98
2023-01-04T09:35:09.621Z,67.01
2023-01-04T09:36:22.077Z,67.02
2023-01-04T09:37:30.629Z,67.26
2023-01-04T09:38:39.970Z,67.42
2023-01-04T09:39:48.477Z,67.56
2023-01-04T09:41:16.160Z,67.73
2023-01-04T09:45:26.287Z,67.57
2023-01-04T09:46:34.405Z,67.38
2023-01-04T09:47:48.700Z,67.49
2023-01-04T09:50:25.119Z,67.58
2023-01-04T09:51:36.969Z,67.47
2023-01-04T09:52:55.821Z,67.72
2023-01-04T09:54:16.899Z,67.26
2023-01-04T09:55:46.357Z,67.74
2023-01-04T09:58:23.260Z,67.79
2023-01-04T09:59:34.679Z,67.91
2023-01-04T10:00:47.841Z,67.68
2023-01-04T10:03:27.064Z,67.84
2023-01-04T10:04:48.736Z,67.80
2023-01-04T10:05:58.610Z,66.98
2023-01-04T10:08:26.652Z,67.31
2023-01-04T10:09:35.331Z,67.49
2023-01-04T10:11:17.121Z,67.04
2023-01-04T10:12:38.528Z,66.77
2023-01-04T10:14:19.899Z,66.62
2023-01-04T10:18:13.533Z,66.94
2023-01-04T10:19:36.915Z,66.76
2023-01-04T10:23:19.855Z,66.68
2023-01-04T10:26:12.921Z,66.38
2023-01-04T10:29:14.477Z,66.34
2023-01-04T10:33:51.334Z,66.02
2023-01-04T10:35:01.933Z,65.90
2023-01-04T10:36:21.369Z,65.65
2023-01-04T10:37:36.808Z,65.72
2023-01-04T10:40:03.080Z,65.79
2023-01-04T10:41:15.357Z,65.41
2023-01-04T10:44:17.712Z,65.11
2023-01-04T10:47:08.077Z,64.59
2023-01-04T10:50:35.616Z,64.42
2023-01-04T10:53:13.239Z,64.63
2023-01-04T10:54:35.048Z,64.14
2023-01-04T10:56:24.029Z,64.26
2023-01-04T10:57:18.470Z,63.87
2023-01-04T11:00:15.770Z,63.55
2023-01-04T11:03:09.151Z,63.50
2023-01-04T11:04:19.763Z,63.49
2023-01-04T11:07:12.116Z,62.76
2023-01-04T11:09:51.644Z,62.35
2023-01-04T11:12:23.984Z,62.93
2023-01-04T11:13:32.944Z,62.79
2023-01-04T11:14:41.782Z,63.19
2023-01-04T11:15:52.854Z,63.19
2023-01-04T11:17:06.975Z,63.03
2023-01-04T11:18:18.086Z,62.27
2023-01-04T11:19:29.348Z,62.60
2023-01-04T11:20:38.798Z,62.26
2023-01-04T11:21:52.237Z,61.83
2023-01-04T11:24:33.199Z,62.30
2023-01-04T11:25:46.165Z,61.80
2023-01-04T11:26:57.010Z,61.68
2023-01-04T11:28:18.787Z,61.21
2023-01-04T11:29:34.071Z,61.55
2023-01-04T11:31:07.415Z,61.64
2023-01-04T11:32:28.926Z,61.87
2023-01-04T11:35:12.774Z,60.94
2023-01-04T11:36:38.786Z,61.15
2023-01-04T11:37:47.403Z,61.35
2023-01-04T11:38:56.972Z,61.62
2023-01-04T11:40:18.953Z,61.15
2023-01-04T11:41:30.322Z,61.09
2023-01-04T11:42:39.729Z,60.67
2023-01-04T11:44:05.519Z,60.71
2023-01-04T11:46:39.171Z,60.42
2023-01-04T11:49:12.087Z,59.34
2023-01-04T11:51:52.867Z,59.45
2023-01-04T11:53:04.267Z,59.25
2023-01-04T11:54:17.031Z,59.00
2023-01-04T11:57:12.111Z,58.33
2023-01-04T11:58:21.064Z,58.30
2023-01-04T11:59:29.669Z,57.92
2023-01-04T12:00:41.271Z,57.64
2023-01-04T12:01:52.394Z,57.76
2023-01-04T12:03:15.930Z,57.56
2023-01-04T12:04:27.391Z,57.65
2023-01-04T12:05:37.899Z,56.88
2023-01-04T12:06:48.825Z,56.68
2023-01-04T12:07:59.012Z,56.45
2023-01-04T12:09:11.316Z,57.00
2023-01-04T12:10:26.093Z,57.06
2023-01-04T12:11:38.110Z,56.31
2023-01-04T12:12:48.009Z,56.01
2023-01-04T12:14:01.398Z,56.59
2023-01-04T12:15:16.714Z,56.73
2023-01-04T12:16:41.063Z,56.68
2023-01-04T12:17:53.377Z,56.60
2023-01-04T12:19:05.229Z,56.80
2023-01-04T12:20:20.251Z,56.71
2023-01-04T12:21:32.773Z,57.05
2023-01-04T12:22:41.998Z,56.76
2023-01-04T12:23:53.281Z,57.09
2023-01-04T12:25:07.503Z,56.77
2023-01-04T12:26:19.634Z,56.73
2023-01-04T12:27:29.085Z,56.40
2023-01-04T12:30:01.810Z,56.55
2023-01-04T12:31:23.504Z,56.49
2023-01-04T12:32:36.869Z,56.35
2023-01-04T12:33:54.767Z,56.40
2023-01-04T12:35:04.787Z,56.23
2023-01-04T12:36:17.202Z,56.41
2023-01-04T12:39:13.819Z,56.47
2023-01-04T12:40:46.177Z,56.55
2023-01-04T12:42:03.893Z,56.74
2023-01-04T12:43:24.741Z,56.87
2023-01-04T12:44:39.857Z,56.57
2023-01-04T12:45:52.307Z,56.80
2023-01-04T12:47:21.897Z,56.97
2023-01-04T12:48:51.647Z,56.67
2023-01-04T12:50:08.040Z,56.90
2023-01-04T12:51:33.206Z,56.94
2023-01-04T12:55:40.585Z,56.88
2023-01-04T12:59:06.551Z,56.90
2023-01-04T13:01:31.112Z,56.31
2023-01-04T13:02:51.392Z,56.34
2023-01-04T13:04:06.187Z,56.09
2023-01-04T13:06:36.091Z,55.68
2023-01-04T13:07:52.306Z,55.81
2023-01-04T13:09:01.822Z,55.24
2023-01-04T13:10:34.737Z,55.46
2023-01-04T13:12:05.428Z,55.50
2023-01-04T13:13:36.195Z,55.21
2023-01-04T13:14:51.394Z,55.23
2023-01-04T13:16:27.078Z,55.05
2023-01-04T13:17:39.827Z,55.07
2023-01-04T13:18:53.153Z,55.15
2023-01-04T13:20:20.819Z,55.20
2023-01-04T13:21:42.310Z,55.17
2023-01-04T13:25:42.844Z,55.19
2023-01-04T13:26:53.190Z,55.04
2023-01-04T13:28:04.835Z,54.96
2023-01-04T13:29:33.426Z,55.09
2023-01-04T13:30:44.067Z,55.34
2023-01-04T13:32:04.868Z,55.25
2023-01-04T13:33:27.690Z,55.32
2023-01-04T13:34:38.003Z,55.35
2023-01-04T13:36:03.167Z,55.64
2023-01-04T13:38:34.909Z,55.77
2023-01-04T13:39:46.166Z,55.85
2023-01-04T13:40:56.759Z,55.80
2023-01-04T13:42:09.701Z,56.13
2023-01-04T13:43:40.558Z,56.39
2023-01-04T13:46:21.175Z,56.70
2023-01-04T13:48:56.384Z,56.75
2023-01-04T13:51:36.711Z,57.04
2023-01-04T13:52:59.928Z,56.98
2023-01-04T13:53:57.883Z,56.95
2023-01-04T13:56:41.767Z,57.18
2023-01-04T13:58:06.390Z,56.80
2023-01-04T13:59:15.602Z,56.81
2023-01-04T14:00:34.662Z,57.10
2023-01-04T17:38:26.791Z,61.08
2023-01-04T17:39:35.811Z,61.13
2023-01-04T17:40:45.182Z,61.28
2023-01-04T17:41:53.787Z,61.51
2023-01-04T17:43:02.973Z,61.74
2023-01-04T17:44:11.878Z,62.21
2023-01-04T17:45:21.236Z,61.96
2023-01-04T17:46:33.783Z,62.07
2023-01-04T17:47:42.619Z,62.39
2023-01-04T17:49:17.689Z,62.76
2023-01-04T17:50:04.704Z,62.52
2023-01-04T17:51:18.034Z,62.07
2023-01-04T17:52:31.234Z,61.85
2023-01-04T17:53:39.511Z,61.51
2023-01-04T17:54:48.034Z,60.60
2023-01-04T17:56:05.925Z,60.33
2023-01-04T17:57:15.018Z,60.38
2023-01-04T17:58:25.112Z,59.89
2023-01-04T17:59:33.708Z,59.55
2023-01-04T18:00:42.445Z,59.88
2023-01-04T18:01:52.063Z,59.81
2023-01-04T18:03:02.990Z,59.45
2023-01-04T18:04:11.706Z,59.58
2023-01-04T18:05:20.615Z,59.78
2023-01-04T18:06:32.593Z,59.98
2023-01-04T18:07:42.879Z,59.80
2023-01-04T18:08:52.201Z,59.44
2023-01-04T18:10:01.011Z,59.47
2023-01-04T18:11:09.963Z,59.42
2023-01-04T18:12:18.889Z,59.47
2023-01-04T18:13:27.764Z,59.52
2023-01-04T18:14:36.865Z,59.50
2023-01-04T18:16:10.040Z,59.14
2023-01-04T18:16:57.216Z,59.28
2023-01-04T18:18:07.098Z,58.96
2023-01-04T18:19:15.669Z,59.25
2023-01-04T18:21:42.951Z,59.91
2023-01-04T18:25:19.928Z,60.05
2023-01-04T18:26:36.778Z,59.62
2023-01-04T18:27:43.163Z,59.48
2023-01-04T18:28:52.954Z,59.75
2023-01-04T18:30:01.670Z,59.78
2023-01-04T18:31:16.400Z,59.52
2023-01-04T18:32:26.266Z,59.15
2023-01-04T18:33:34.954Z,59.68
2023-01-04T18:34:44.503Z,60.51
2023-01-04T18:35:53.113Z,60.95
2023-01-04T18:37:02.159Z,60.29
2023-01-04T18:38:10.779Z,60.61
2023-01-04T18:39:19.813Z,61.25
2023-01-04T18:40:28.591Z,61.74
2023-01-04T18:41:37.895Z,61.90
2023-01-04T18:44:31.517Z,62.67
2023-01-04T18:45:16.440Z,63.43
2023-01-04T18:46:25.758Z,63.66
2023-01-04T18:47:35.002Z,64.24
2023-01-04T18:48:55.587Z,64.32
2023-01-04T18:50:04.773Z,64.38
2023-01-04T18:51:15.133Z,64.19
2023-01-04T18:52:23.773Z,64.25
2023-01-04T18:53:32.568Z,64.44
2023-01-04T18:54:41.125Z,64.17
2023-01-04T18:55:49.877Z,64.69
2023-01-04T18:57:00.976Z,64.93
2023-01-04T18:58:09.079Z,64.45
2023-01-04T18:59:18.164Z,64.74
2023-01-04T19:00:29.138Z,64.53
2023-01-04T19:01:38.801Z,64.54
2023-01-04T19:02:48.736Z,64.42
2023-01-04T19:03:57.595Z,64.94
2023-01-04T19:05:07.207Z,64.71
2023-01-04T19:06:19.968Z,64.25
2023-01-04T19:07:29.217Z,63.96
2023-01-04T19:08:39.501Z,64.04
2023-01-04T19:09:49.125Z,64.58
2023-01-04T19:10:58.834Z,64.51
2023-01-04T19:12:07.773Z,64.65
2023-01-04T19:13:17.422Z,64.93
2023-01-04T19:14:25.984Z,64.55
2023-01-04T19:15:35.166Z,64.24
2023-01-04T19:16:44.136Z,63.49
2023-01-04T19:17:52.939Z,63.59
2023-01-04T19:19:02.409Z,63.84
2023-01-04T19:20:11.553Z,63.87
2023-01-04T19:21:21.143Z,63.92
2023-01-04T19:22:30.886Z,64.15
2023-01-04T19:23:40.304Z,64.11
2023-01-04T19:24:48.890Z,64.29
2023-01-04T19:25:57.673Z,64.51
2023-01-04T19:27:08.676Z,64.30
2023-01-04T19:28:18.185Z,64.26
2023-01-04T19:29:27.717Z,64.11
2023-01-04T19:30:40.998Z,64.15
2023-01-04T19:33:06.361Z,64.07
2023-01-04T19:35:32.463Z,64.22
2023-01-04T19:36:41.434Z,64.21
2023-01-04T19:37:51.423Z,64.12
2023-01-04T19:40:17.158Z,64.42
2023-01-04T19:41:33.534Z,64.83
2023-01-04T19:42:41.055Z,65.14
2023-01-04T19:43:50.438Z,65.04
2023-01-04T19:44:59.434Z,64.58
2023-01-04T19:46:09.741Z,64.82
2023-01-04T19:47:18.587Z,64.41
2023-01-04T19:48:28.363Z,64.28
2023-01-04T19:49:38.246Z,64.36
2023-01-04T19:50:47.561Z,64.16
2023-01-04T19:51:57.163Z,64.36
2023-01-04T19:54:25.338Z,64.38
2023-01-04T19:55:32.657Z,64.34
2023-01-04T19:56:41.557Z,64.39
2023-01-04T19:57:50.363Z,64.41
2023-01-04T19:59:00.881Z,64.15
2023-01-04T20:00:11.159Z,64.20
2023-01-04T20:02:38.364Z,64.21
2023-01-04T20:03:47.753Z,64.12
2023-01-04T20:06:13.708Z,65.18
2023-01-04T20:07:23.574Z,65.72
2023-01-04T20:08:33.289Z,66.19
2023-01-04T20:09:44.648Z,65.97
2023-01-04T20:10:53.937Z,66.06
2023-01-04T20:12:02.682Z,66.27
2023-01-04T20:13:11.494Z,66.61
2023-01-04T20:14:21.314Z,66.53
2023-01-04T20:15:29.847Z,66.37
2023-01-04T20:16:39.149Z,67.17
2023-01-04T20:17:48.922Z,67.32
2023-01-04T20:18:58.524Z,67.17
2023-01-04T20:20:07.313Z,67.15
2023-01-04T20:21:16.053Z,67.53
2023-01-04T20:22:25.096Z,66.44
2023-01-04T20:23:34.923Z,66.87
2023-01-04T20:24:43.538Z,66.91
2023-01-04T20:25:53.771Z,66.97
2023-01-04T20:27:03.038Z,67.16
2023-01-04T20:28:13.429Z,66.84
2023-01-04T20:29:21.929Z,66.85
2023-01-04T20:30:31.228Z,66.49
2023-01-04T20:31:45.617Z,66.59
2023-01-04T20:32:53.040Z,66.23
2023-01-04T20:34:02.668Z,66.39
2023-01-04T20:35:13.223Z,66.66
2023-01-04T20:36:30.861Z,66.56
2023-01-04T20:37:39.368Z,66.70
2023-01-04T20:38:50.403Z,67.17
2023-01-04T20:41:16.963Z,66.86
2023-01-04T20:42:44.439Z,67.50
2023-01-04T20:43:53.024Z,68.00
2023-01-04T20:45:01.571Z,67.83
2023-01-04T20:46:19.830Z,67.85
2023-01-04T20:47:30.201Z,67.85
2023-01-04T20:48:40.509Z,67.73
2023-01-04T20:49:50.109Z,67.48
2023-01-04T20:50:59.753Z,67.53
2023-01-04T20:52:08.376Z,66.88
2023-01-04T20:53:17.880Z,66.56
2023-01-04T20:54:26.439Z,65.57
2023-01-04T20:55:39.855Z,65.68
2023-01-04T20:56:48.964Z,65.98
2023-01-04T20:57:58.986Z,66.32
2023-01-04T20:59:07.514Z,64.76
2023-01-04T21:00:20.871Z,64.39
2023-01-04T21:01:30.858Z,64.64
2023-01-04T21:03:55.155Z,64.79
2023-01-04T21:05:04.853Z,64.59
2023-01-04T21:06:16.575Z,64.75
2023-01-04T21:07:25.504Z,65.29
2023-01-04T21:08:39.257Z,64.68
2023-01-04T21:09:48.494Z,64.41
2023-01-04T21:10:57.952Z,64.36
2023-01-04T21:12:07.470Z,64.44
2023-01-04T21:13:17.109Z,64.70
2023-01-04T21:14:25.927Z,64.87
2023-01-04T21:15:37.518Z,64.83
2023-01-04T21:16:46.934Z,64.90
2023-01-04T21:17:55.540Z,64.97
2023-01-04T21:19:04.522Z,64.93
2023-01-04T21:20:14.406Z,65.79
2023-01-04T21:21:22.915Z,66.41
2023-01-04T21:22:31.531Z,66.44
2023-01-04T21:23:42.722Z,66.53
2023-01-04T21:24:52.391Z,66.80
2023-01-04T21:26:06.478Z,67.17
2023-01-04T21:27:15.872Z,66.98
2023-01-04T21:28:25.409Z,66.10
2023-01-04T21:29:33.932Z,66.25
2023-01-04T21:30:45.766Z,66.54
2023-01-04T21:31:55.603Z,66.66
2023-01-04T21:33:04.208Z,66.77